createdAt,value
2016-10-16T00:00:16.463Z,0
2016-10-16T00:01:16.491Z,0
2016-10-16T00:02:16.196Z,0
2016-10-16T00:03:16.219Z,0
2016-10-16T00:04:16.260Z,0
2016-10-16T00:05:16.263Z,0
2016-10-16T00:06:16.598Z,0
2016-10-16T00:07:16.624Z,0
2016-10-16T00:08:16.650Z,0
2016-10-16T00:09:16.347Z,0
2016-10-16T00:10:16.706Z,0
2016-10-16T00:11:16.725Z,0
2016-10-16T00:12:17.051Z,0
2016-10-16T00:13:16.451Z,0
2016-10-16T00:14:16.779Z,0
2016-10-16T00:15:16.482Z,0
2016-10-16T00:16:16.822Z,0
2016-10-16T00:17:16.855Z,0
2016-10-16T00:18:17.497Z,0
2016-10-16T00:19:16.895Z,0
2016-10-16T00:20:16.913Z,0
2016-10-16T00:21:16.932Z,0
2016-10-16T00:22:16.320Z,0
2016-10-16T00:23:16.984Z,0
2016-10-16T00:24:16.698Z,0
2016-10-16T00:25:17.018Z,0
2016-10-16T00:26:16.738Z,0
2016-10-16T00:27:17.056Z,0
2016-10-16T00:28:16.865Z,0
2016-10-16T00:29:17.421Z,0
2016-10-16T00:30:17.129Z,0
2016-10-16T00:31:17.850Z,0
2016-10-16T00:32:17.200Z,0
2016-10-16T00:33:16.917Z,0
2016-10-16T00:34:31.475Z,0
2016-10-16T00:35:17.243Z,0
2016-10-16T00:36:16.946Z,0
2016-10-16T00:37:17.620Z,0
2016-10-16T00:38:17.622Z,0
2016-10-16T00:39:17.334Z,0
2016-10-16T00:40:17.042Z,0
2016-10-16T00:41:17.391Z,0
2016-10-16T00:42:17.398Z,0
2016-10-16T00:43:17.115Z,0
2016-10-16T00:44:16.807Z,0
2016-10-16T00:45:17.484Z,0
2016-10-16T00:46:16.863Z,0
2016-10-16T00:47:17.210Z,0
2016-10-16T00:48:17.216Z,0
2016-10-16T00:49:17.231Z,0
2016-10-16T00:50:17.261Z,0
2016-10-16T00:51:17.600Z,0
2016-10-16T00:52:17.332Z,0
2016-10-16T00:53:17.324Z,0
2016-10-16T00:54:17.031Z,0
2016-10-16T00:55:18.011Z,0
2016-10-16T00:56:17.707Z,0
2016-10-16T00:57:18.358Z,0
2016-10-16T00:58:17.113Z,0
2016-10-16T00:59:17.454Z,0
2016-10-16T01:00:17.796Z,0
2016-10-16T01:01:18.136Z,0
2016-10-16T01:02:17.832Z,0
2016-10-16T01:03:18.182Z,0
2016-10-16T01:04:18.304Z,0
2016-10-16T01:05:17.927Z,0
2016-10-16T01:06:17.923Z,0
2016-10-16T01:07:18.257Z,0
2016-10-16T01:08:18.288Z,0
2016-10-16T01:09:17.673Z,0
2016-10-16T01:10:18.019Z,0
2016-10-16T01:11:18.360Z,0
2016-10-16T01:12:18.688Z,0
2016-10-16T01:13:18.389Z,0
2016-10-16T01:14:18.749Z,0
2016-10-16T01:15:18.443Z,0
2016-10-16T01:16:18.156Z,0
2016-10-16T01:17:18.168Z,0
2016-10-16T01:18:17.877Z,0
2016-10-16T01:19:18.528Z,0
2016-10-16T01:20:18.864Z,0
2016-10-16T01:21:17.942Z,0
2016-10-16T01:22:17.642Z,0
2016-10-16T01:23:18.300Z,0
2016-10-16T01:24:18.957Z,0
2016-10-16T01:25:18.341Z,0
2016-10-16T01:26:17.749Z,0
2016-10-16T01:27:18.703Z,0
2016-10-16T01:28:19.046Z,0
2016-10-16T01:29:18.132Z,0
2016-10-16T01:30:17.837Z,0
2016-10-16T01:31:18.483Z,0
2016-10-16T01:32:18.194Z,0
2016-10-16T01:33:17.889Z,0
2016-10-16T01:34:18.221Z,0
2016-10-16T01:35:18.566Z,0
2016-10-16T01:36:18.587Z,0
2016-10-16T01:37:18.432Z,0
2016-10-16T01:38:18.626Z,0
2016-10-16T01:39:18.341Z,0
2016-10-16T01:40:18.676Z,0
2016-10-16T01:41:18.694Z,0
2016-10-16T01:42:18.399Z,0
2016-10-16T01:43:18.432Z,0
2016-10-16T01:44:19.416Z,0
2016-10-16T01:45:18.469Z,0
2016-10-16T01:46:18.808Z,0
2016-10-16T01:47:19.455Z,0
2016-10-16T01:48:18.542Z,0
2016-10-16T01:49:18.564Z,0
2016-10-16T01:50:18.572Z,0
2016-10-16T01:51:18.291Z,0
2016-10-16T01:52:18.933Z,0
2016-10-16T01:53:18.648Z,0
2016-10-16T01:54:18.984Z,0
2016-10-16T01:55:19.336Z,0
2016-10-16T01:56:18.386Z,0
2016-10-16T01:57:18.444Z,0
2016-10-16T01:58:18.753Z,0
2016-10-16T01:59:19.083Z,0
2016-10-16T02:00:18.805Z,0
2016-10-16T02:01:18.501Z,0
2016-10-16T02:02:19.474Z,0
2016-10-16T02:03:18.882Z,0
2016-10-16T02:04:19.200Z,0
2016-10-16T02:05:18.901Z,0
2016-10-16T02:06:18.929Z,0
2016-10-16T02:07:19.271Z,0
2016-10-16T02:08:18.651Z,0
2016-10-16T02:09:19.309Z,0
2016-10-16T02:10:18.718Z,0
2016-10-16T02:11:19.673Z,0
2016-10-16T02:12:19.394Z,0
2016-10-16T02:13:19.718Z,0
2016-10-16T02:14:19.436Z,0
2016-10-16T02:15:19.441Z,0
2016-10-16T02:16:19.499Z,0
2016-10-16T02:17:19.797Z,0
2016-10-16T02:18:19.521Z,0
2016-10-16T02:19:19.215Z,0
2016-10-16T02:20:19.553Z,0
2016-10-16T02:21:19.575Z,0
2016-10-16T02:22:19.276Z,0
2016-10-16T02:23:19.935Z,0
2016-10-16T02:24:19.960Z,0
2016-10-16T02:25:19.369Z,0
2016-10-16T02:26:19.366Z,0
2016-10-16T02:27:20.039Z,0
2016-10-16T02:28:34.634Z,0
2016-10-16T02:29:19.750Z,0
2016-10-16T02:30:19.768Z,0
2016-10-16T02:31:20.457Z,0
2016-10-16T02:32:19.513Z,0
2016-10-16T02:33:20.229Z,0
2016-10-16T02:34:19.335Z,0
2016-10-16T02:35:20.197Z,0
2016-10-16T02:36:19.921Z,0
2016-10-16T02:37:19.925Z,0
2016-10-16T02:38:19.636Z,0
2016-10-16T02:39:19.973Z,0
2016-10-16T02:40:19.681Z,0
2016-10-16T02:41:20.020Z,0
2016-10-16T02:42:20.038Z,0
2016-10-16T02:43:19.455Z,0
2016-10-16T02:44:20.113Z,0
2016-10-16T02:45:20.103Z,0
2016-10-16T02:46:19.806Z,0
2016-10-16T02:47:19.822Z,0
2016-10-16T02:48:20.184Z,0
2016-10-16T02:49:20.186Z,0
2016-10-16T02:50:20.215Z,0
2016-10-16T02:51:20.234Z,0
2016-10-16T02:52:19.957Z,0
2016-10-16T02:53:20.590Z,0
2016-10-16T02:54:20.298Z,0
2016-10-16T02:55:19.702Z,0
2016-10-16T02:56:20.972Z,0
2016-10-16T02:57:20.051Z,0
2016-10-16T02:58:20.085Z,0
2016-10-16T02:59:20.728Z,0
2016-10-16T03:00:21.064Z,0
2016-10-16T03:01:20.765Z,0
2016-10-16T03:02:20.474Z,0
2016-10-16T03:03:20.819Z,0
2016-10-16T03:04:21.155Z,0
2016-10-16T03:05:20.538Z,0
2016-10-16T03:06:20.571Z,0
2016-10-16T03:07:20.579Z,0
2016-10-16T03:08:20.617Z,0
2016-10-16T03:09:19.996Z,0
2016-10-16T03:10:20.333Z,0
2016-10-16T03:11:20.364Z,0
2016-10-16T03:12:20.379Z,0
2016-10-16T03:13:20.720Z,0
2016-10-16T03:14:20.422Z,0
2016-10-16T03:15:20.773Z,0
2016-10-16T03:16:20.789Z,0
2016-10-16T03:17:20.494Z,0
2016-10-16T03:18:20.511Z,0
2016-10-16T03:19:21.166Z,0
2016-10-16T03:20:21.176Z,0
2016-10-16T03:21:20.899Z,0
2016-10-16T03:22:20.926Z,0
2016-10-16T03:23:20.939Z,0
2016-10-16T03:24:20.965Z,0
2016-10-16T03:25:21.612Z,0
2016-10-16T03:26:21.314Z,0
2016-10-16T03:27:20.702Z,0
2016-10-16T03:28:20.410Z,0
2016-10-16T03:29:21.381Z,0
2016-10-16T03:30:20.774Z,0
2016-10-16T03:31:20.472Z,0
2016-10-16T03:32:21.123Z,0
2016-10-16T03:33:21.351Z,0
2016-10-16T03:34:21.191Z,0
2016-10-16T03:35:21.505Z,0
2016-10-16T03:36:21.209Z,0
2016-10-16T03:37:20.926Z,0
2016-10-16T03:38:20.956Z,0
2016-10-16T03:39:21.600Z,0
2016-10-16T03:40:21.005Z,0
2016-10-16T03:41:20.702Z,0
2016-10-16T03:42:21.368Z,0
2016-10-16T03:43:21.053Z,0
2016-10-16T03:44:21.080Z,0
2016-10-16T03:45:21.720Z,0
2016-10-16T03:46:21.425Z,0
2016-10-16T03:47:21.456Z,0
2016-10-16T03:48:21.162Z,0
2016-10-16T03:49:21.187Z,0
2016-10-16T03:50:21.531Z,0
2016-10-16T03:51:21.533Z,0
2016-10-16T03:52:21.554Z,0
2016-10-16T03:53:21.900Z,0
2016-10-16T03:54:21.911Z,0
2016-10-16T03:55:21.623Z,0
2016-10-16T03:56:21.325Z,0
2016-10-16T03:57:21.366Z,0
2016-10-16T03:58:21.687Z,0
2016-10-16T03:59:21.398Z,0
2016-10-16T04:00:22.039Z,0
2016-10-16T04:01:21.770Z,0
2016-10-16T04:02:21.454Z,0
2016-10-16T04:03:21.469Z,0
2016-10-16T04:04:22.154Z,0
2016-10-16T04:05:21.856Z,0
2016-10-16T04:06:21.220Z,0
2016-10-16T04:07:22.199Z,0
2016-10-16T04:08:21.267Z,0
2016-10-16T04:09:21.912Z,0
2016-10-16T04:10:21.617Z,0
2016-10-16T04:11:22.275Z,0
2016-10-16T04:12:21.658Z,0
2016-10-16T04:13:22.014Z,0
2016-10-16T04:14:22.020Z,0
2016-10-16T04:15:22.049Z,0
2016-10-16T04:16:22.689Z,0
2016-10-16T04:17:21.826Z,0
2016-10-16T04:18:22.100Z,0
2016-10-16T04:19:21.810Z,0
2016-10-16T04:20:21.511Z,0
2016-10-16T04:21:21.870Z,0
2016-10-16T04:22:21.879Z,0
2016-10-16T04:23:22.534Z,0
2016-10-16T04:24:22.562Z,0
2016-10-16T04:25:21.943Z,0
2016-10-16T04:26:22.589Z,0
2016-10-16T04:27:21.983Z,0
2016-10-16T04:28:22.308Z,0
2016-10-16T04:29:22.332Z,0
2016-10-16T04:30:22.358Z,0
2016-10-16T04:31:23.006Z,0
2016-10-16T04:32:22.470Z,0
2016-10-16T04:33:22.443Z,0
2016-10-16T04:34:22.450Z,0
2016-10-16T04:35:21.847Z,0
2016-10-16T04:36:22.570Z,0
2016-10-16T04:37:22.202Z,0
2016-10-16T04:38:23.253Z,0
2016-10-16T04:39:22.864Z,0
2016-10-16T04:40:23.198Z,0
2016-10-16T04:41:22.904Z,0
2016-10-16T04:42:22.599Z,0
2016-10-16T04:43:22.959Z,0
2016-10-16T04:44:22.647Z,0
2016-10-16T04:45:22.667Z,0
2016-10-16T04:46:23.007Z,0
2016-10-16T04:47:22.431Z,0
2016-10-16T04:48:22.415Z,0
2016-10-16T04:49:22.439Z,0
2016-10-16T04:50:22.819Z,0
2016-10-16T04:51:23.100Z,0
2016-10-16T04:52:22.512Z,0
2016-10-16T04:53:22.514Z,0
2016-10-16T04:54:22.864Z,0
2016-10-16T04:55:22.556Z,0
2016-10-16T04:56:23.227Z,0
2016-10-16T04:57:23.229Z,0
2016-10-16T04:58:22.954Z,0
2016-10-16T04:59:23.594Z,0
2016-10-16T05:00:22.665Z,0
2016-10-16T05:01:23.326Z,0
2016-10-16T05:02:23.029Z,0
2016-10-16T05:03:23.038Z,0
2016-10-16T05:04:23.063Z,0
2016-10-16T05:05:22.784Z,0
2016-10-16T05:06:23.434Z,0
2016-10-16T05:07:37.703Z,0
2016-10-16T05:08:23.475Z,0
2016-10-16T05:09:22.550Z,0
2016-10-16T05:10:23.569Z,0
2016-10-16T05:11:22.574Z,0
2016-10-16T05:12:23.878Z,0
2016-10-16T05:13:23.622Z,0
2016-10-16T05:14:23.305Z,0
2016-10-16T05:15:23.295Z,0
2016-10-16T05:16:23.651Z,0
2016-10-16T05:17:23.023Z,0
2016-10-16T05:18:23.034Z,0
2016-10-16T05:19:22.782Z,0
2016-10-16T05:20:22.795Z,0
2016-10-16T05:21:23.104Z,0
2016-10-16T05:22:23.739Z,0
2016-10-16T05:23:23.496Z,0
2016-10-16T05:24:23.544Z,0
2016-10-16T05:25:23.179Z,0
2016-10-16T05:26:23.519Z,0
2016-10-16T05:27:23.217Z,0
2016-10-16T05:28:23.567Z,0
2016-10-16T05:29:23.675Z,0
2016-10-16T05:30:23.615Z,0
2016-10-16T05:31:23.947Z,0
2016-10-16T05:32:23.932Z,0
2016-10-16T05:33:23.693Z,0
2016-10-16T05:34:24.001Z,0
2016-10-16T05:35:23.719Z,0
2016-10-16T05:36:23.412Z,0
2016-10-16T05:37:24.376Z,0
2016-10-16T05:38:23.452Z,0
2016-10-16T05:39:24.149Z,0
2016-10-16T05:40:23.493Z,0
2016-10-16T05:41:23.527Z,0
2016-10-16T05:42:24.162Z,0
2016-10-16T05:43:23.889Z,0
2016-10-16T05:44:24.526Z,0
2016-10-16T05:45:23.596Z,0
2016-10-16T05:46:24.255Z,0
2016-10-16T05:47:24.272Z,0
2016-10-16T05:48:23.971Z,0
2016-10-16T05:49:24.001Z,0
2016-10-16T05:50:24.654Z,0
2016-10-16T05:51:23.429Z,0
2016-10-16T05:52:24.366Z,0
2016-10-16T05:53:23.775Z,0
2016-10-16T05:54:24.099Z,0
2016-10-16T05:55:24.745Z,0
2016-10-16T05:56:24.451Z,0
2016-10-16T05:57:23.529Z,0
2016-10-16T05:58:24.817Z,0
2016-10-16T05:59:24.202Z,0
2016-10-16T06:00:24.594Z,0
2016-10-16T06:01:23.922Z,0
2016-10-16T06:02:23.642Z,0
2016-10-16T06:03:23.974Z,0
2016-10-16T06:04:24.299Z,0
2016-10-16T06:05:24.951Z,0
2016-10-16T06:06:24.653Z,0
2016-10-16T06:07:24.065Z,0
2016-10-16T06:08:25.011Z,0
2016-10-16T06:09:24.091Z,0
2016-10-16T06:10:24.736Z,0
2016-10-16T06:11:24.759Z,0
2016-10-16T06:12:24.164Z,0
2016-10-16T06:13:24.565Z,0
2016-10-16T06:14:24.186Z,0
2016-10-16T06:15:24.525Z,0
2016-10-16T06:16:24.229Z,0
2016-10-16T06:17:24.248Z,0
2016-10-16T06:18:24.276Z,0
2016-10-16T06:19:24.619Z,0
2016-10-16T06:20:24.950Z,0
2016-10-16T06:21:24.337Z,0
2016-10-16T06:22:24.683Z,5
2016-10-16T06:23:24.687Z,5
2016-10-16T06:24:24.406Z,5
2016-10-16T06:25:25.359Z,5
2016-10-16T06:26:25.057Z,5
2016-10-16T06:27:24.771Z,5
2016-10-16T06:28:24.475Z,5
2016-10-16T06:29:24.813Z,5
2016-10-16T06:30:24.529Z,5
2016-10-16T06:31:24.543Z,5
2016-10-16T06:32:25.205Z,5
2016-10-16T06:33:24.582Z,5
2016-10-16T06:34:24.598Z,5
2016-10-16T06:35:24.615Z,5
2016-10-16T06:36:24.960Z,5
2016-10-16T06:37:25.295Z,5
2016-10-16T06:38:25.312Z,5
2016-10-16T06:39:25.020Z,5
2016-10-16T06:40:24.727Z,5
2016-10-16T06:41:24.752Z,5
2016-10-16T06:42:24.757Z,5
2016-10-16T06:43:25.102Z,5
2016-10-16T06:44:24.804Z,5
2016-10-16T06:45:25.454Z,5
2016-10-16T06:46:24.848Z,5
2016-10-16T06:47:24.868Z,5
2016-10-16T06:48:24.904Z,5
2016-10-16T06:49:24.596Z,5
2016-10-16T06:50:25.246Z,5
2016-10-16T06:51:25.279Z,5
2016-10-16T06:52:25.281Z,5
2016-10-16T06:53:24.994Z,5
2016-10-16T06:54:25.320Z,5
2016-10-16T06:55:25.979Z,5
2016-10-16T06:56:24.732Z,5
2016-10-16T06:57:25.712Z,5
2016-10-16T06:58:24.791Z,5
2016-10-16T06:59:25.118Z,5
2016-10-16T07:00:25.463Z,10
2016-10-16T07:01:24.857Z,10
2016-10-16T07:02:25.490Z,10
2016-10-16T07:03:25.196Z,10
2016-10-16T07:04:25.212Z,10
2016-10-16T07:05:25.866Z,10
2016-10-16T07:06:24.946Z,10
2016-10-16T07:07:25.290Z,10
2016-10-16T07:08:25.933Z,15
2016-10-16T07:09:25.037Z,15
2016-10-16T07:10:25.986Z,15
2016-10-16T07:11:26.109Z,15
2016-10-16T07:12:25.698Z,15
2016-10-16T07:13:25.087Z,15
2016-10-16T07:14:25.741Z,15
2016-10-16T07:15:25.135Z,15
2016-10-16T07:16:25.790Z,15
2016-10-16T07:17:25.804Z,20
2016-10-16T07:18:25.817Z,20
2016-10-16T07:19:25.217Z,20
2016-10-16T07:20:25.863Z,20
2016-10-16T07:21:25.883Z,25
2016-10-16T07:22:25.930Z,30
2016-10-16T07:23:25.627Z,30
2016-10-16T07:24:26.264Z,35
2016-10-16T07:25:25.970Z,55
2016-10-16T07:26:25.990Z,135
2016-10-16T07:27:26.009Z,240
2016-10-16T07:28:26.662Z,405
2016-10-16T07:29:26.370Z,735
2016-10-16T07:30:26.074Z,875
2016-10-16T07:31:26.116Z,905
2016-10-16T07:32:25.801Z,880
2016-10-16T07:33:25.835Z,735
2016-10-16T07:34:25.849Z,470
2016-10-16T07:35:26.178Z,350
2016-10-16T07:36:26.213Z,255
2016-10-16T07:37:26.235Z,280
2016-10-16T07:38:26.255Z,295
2016-10-16T07:39:25.658Z,245
2016-10-16T07:40:26.619Z,315
2016-10-16T07:41:25.692Z,360
2016-10-16T07:42:25.716Z,215
2016-10-16T07:43:26.050Z,175
2016-10-16T07:44:26.704Z,290
2016-10-16T07:45:26.426Z,165
2016-10-16T07:46:26.456Z,65
2016-10-16T07:47:25.831Z,60
2016-10-16T07:48:27.117Z,60
2016-10-16T07:49:26.510Z,50
2016-10-16T07:50:26.215Z,45
2016-10-16T07:51:26.877Z,45
2016-10-16T07:52:26.576Z,55
2016-10-16T07:53:25.972Z,65
2016-10-16T07:54:26.313Z,55
2016-10-16T07:55:26.654Z,70
2016-10-16T07:56:26.991Z,105
2016-10-16T07:57:26.383Z,110
2016-10-16T07:58:26.732Z,75
2016-10-16T07:59:26.431Z,115
2016-10-16T08:00:26.456Z,200
2016-10-16T08:01:27.127Z,210
2016-10-16T08:02:26.829Z,505
2016-10-16T08:03:26.565Z,1015
2016-10-16T08:04:26.877Z,1070
2016-10-16T08:05:26.286Z,795
2016-10-16T08:06:41.495Z,485
2016-10-16T08:07:26.942Z,245
2016-10-16T08:08:26.763Z,120
2016-10-16T08:09:26.680Z,165
2016-10-16T08:10:26.382Z,165
2016-10-16T08:11:26.737Z,90
2016-10-16T08:12:26.775Z,60
2016-10-16T08:13:26.792Z,55
2016-10-16T08:14:26.811Z,55
2016-10-16T08:15:27.024Z,55
2016-10-16T08:16:26.547Z,145
2016-10-16T08:17:27.527Z,700
2016-10-16T08:18:26.917Z,750
2016-10-16T08:19:26.945Z,165
2016-10-16T08:20:27.596Z,80
2016-10-16T08:21:27.304Z,150
2016-10-16T08:22:27.327Z,315
2016-10-16T08:23:27.673Z,200
2016-10-16T08:24:27.379Z,70
2016-10-16T08:25:27.424Z,75
2016-10-16T08:26:27.762Z,110
2016-10-16T08:27:26.831Z,280
2016-10-16T08:28:27.491Z,640
2016-10-16T08:29:27.201Z,835
2016-10-16T08:30:27.221Z,505
2016-10-16T08:31:27.257Z,120
2016-10-16T08:32:27.592Z,65
2016-10-16T08:33:27.944Z,60
2016-10-16T08:34:27.957Z,60
2016-10-16T08:35:27.668Z,60
2016-10-16T08:36:27.697Z,60
2016-10-16T08:37:27.411Z,60
2016-10-16T08:38:27.440Z,60
2016-10-16T08:39:27.775Z,60
2016-10-16T08:40:27.810Z,60
2016-10-16T08:41:27.537Z,65
2016-10-16T08:42:28.163Z,120
2016-10-16T08:43:28.197Z,290
2016-10-16T08:44:28.225Z,290
2016-10-16T08:45:27.953Z,340
2016-10-16T08:46:27.971Z,555
2016-10-16T08:47:28.308Z,325
2016-10-16T08:48:28.023Z,125
2016-10-16T08:49:27.719Z,70
2016-10-16T08:50:28.068Z,50
2016-10-16T08:51:27.779Z,50
2016-10-16T08:52:28.752Z,50
2016-10-16T08:53:28.171Z,45
2016-10-16T08:54:28.188Z,45
2016-10-16T08:55:27.896Z,45
2016-10-16T08:56:27.593Z,45
2016-10-16T08:57:27.625Z,45
2016-10-16T08:58:27.674Z,75
2016-10-16T08:59:28.318Z,110
2016-10-16T09:00:28.024Z,85
2016-10-16T09:01:28.048Z,75
2016-10-16T09:02:28.389Z,85
2016-10-16T09:03:28.749Z,65
2016-10-16T09:04:28.454Z,50
2016-10-16T09:05:28.793Z,55
2016-10-16T09:06:28.184Z,45
2016-10-16T09:07:28.838Z,50
2016-10-16T09:08:28.558Z,50
2016-10-16T09:09:28.578Z,45
2016-10-16T09:10:28.307Z,45
2016-10-16T09:11:29.281Z,45
2016-10-16T09:12:28.673Z,45
2016-10-16T09:13:28.995Z,50
2016-10-16T09:14:29.032Z,55
2016-10-16T09:15:28.739Z,50
2016-10-16T09:16:28.764Z,55
2016-10-16T09:17:28.500Z,75
2016-10-16T09:18:28.820Z,95
2016-10-16T09:19:28.542Z,135
2016-10-16T09:20:29.193Z,90
2016-10-16T09:21:28.906Z,60
2016-10-16T09:22:28.925Z,55
2016-10-16T09:23:28.638Z,75
2016-10-16T09:24:28.985Z,70
2016-10-16T09:25:29.002Z,55
2016-10-16T09:26:28.740Z,55
2016-10-16T09:27:29.379Z,85
2016-10-16T09:28:29.098Z,85
2016-10-16T09:29:29.122Z,50
2016-10-16T09:30:29.459Z,60
2016-10-16T09:31:29.187Z,45
2016-10-16T09:32:29.833Z,45
2016-10-16T09:33:29.224Z,45
2016-10-16T09:34:29.253Z,45
2016-10-16T09:35:29.280Z,45
2016-10-16T09:36:28.685Z,50
2016-10-16T09:37:29.019Z,55
2016-10-16T09:38:29.044Z,60
2016-10-16T09:39:29.092Z,45
2016-10-16T09:40:29.738Z,45
2016-10-16T09:41:29.129Z,45
2016-10-16T09:42:29.471Z,45
2016-10-16T09:43:29.498Z,45
2016-10-16T09:44:29.853Z,45
2016-10-16T09:45:29.558Z,45
2016-10-16T09:46:29.579Z,45
2016-10-16T09:47:29.349Z,45
2016-10-16T09:48:29.332Z,45
2016-10-16T09:49:29.662Z,45
2016-10-16T09:50:29.058Z,45
2016-10-16T09:51:29.711Z,45
2016-10-16T09:52:29.129Z,45
2016-10-16T09:53:29.455Z,45
2016-10-16T09:54:30.107Z,55
2016-10-16T09:55:29.835Z,50
2016-10-16T09:56:29.850Z,50
2016-10-16T09:57:29.905Z,55
2016-10-16T09:58:30.222Z,50
2016-10-16T09:59:29.638Z,55
2016-10-16T10:00:29.963Z,60
2016-10-16T10:01:29.995Z,50
2016-10-16T10:02:29.703Z,50
2016-10-16T10:03:30.043Z,45
2016-10-16T10:04:29.759Z,50
2016-10-16T10:05:30.136Z,45
2016-10-16T10:06:30.444Z,45
2016-10-16T10:07:30.152Z,45
2016-10-16T10:08:29.549Z,45
2016-10-16T10:09:29.578Z,45
2016-10-16T10:10:29.920Z,45
2016-10-16T10:11:30.274Z,45
2016-10-16T10:12:30.293Z,45
2016-10-16T10:13:30.955Z,45
2016-10-16T10:14:30.362Z,45
2016-10-16T10:15:30.057Z,45
2016-10-16T10:16:30.417Z,45
2016-10-16T10:17:30.814Z,45
2016-10-16T10:18:30.472Z,45
2016-10-16T10:19:30.169Z,45
2016-10-16T10:20:30.508Z,45
2016-10-16T10:21:30.550Z,45
2016-10-16T10:22:30.888Z,45
2016-10-16T10:23:30.921Z,45
2016-10-16T10:24:30.935Z,45
2016-10-16T10:25:30.998Z,45
2016-10-16T10:26:30.988Z,45
2016-10-16T10:27:30.413Z,45
2016-10-16T10:28:30.454Z,45
2016-10-16T10:29:30.453Z,45
2016-10-16T10:30:31.420Z,55
2016-10-16T10:31:30.502Z,55
2016-10-16T10:32:30.536Z,60
2016-10-16T10:33:31.366Z,70
2016-10-16T10:34:30.902Z,75
2016-10-16T10:35:30.930Z,60
2016-10-16T10:36:30.975Z,60
2016-10-16T10:37:31.299Z,50
2016-10-16T10:38:30.377Z,45
2016-10-16T10:39:30.411Z,45
2016-10-16T10:40:31.065Z,50
2016-10-16T10:41:31.112Z,50
2016-10-16T10:42:31.121Z,45
2016-10-16T10:43:30.837Z,45
2016-10-16T10:44:30.863Z,50
2016-10-16T10:45:31.843Z,50
2016-10-16T10:46:30.923Z,45
2016-10-16T10:47:31.263Z,45
2016-10-16T10:48:31.607Z,45
2016-10-16T10:49:31.313Z,40
2016-10-16T10:50:31.347Z,50
2016-10-16T10:51:31.065Z,50
2016-10-16T10:52:31.743Z,50
2016-10-16T10:53:31.752Z,45
2016-10-16T10:54:31.780Z,45
2016-10-16T10:55:31.483Z,40
2016-10-16T10:56:31.233Z,40
2016-10-16T10:57:31.585Z,20
2016-10-16T10:58:31.566Z,15
2016-10-16T10:59:31.616Z,40
2016-10-16T11:00:31.963Z,40
2016-10-16T11:01:31.652Z,40
2016-10-16T11:02:31.685Z,40
2016-10-16T11:03:32.357Z,40
2016-10-16T11:04:31.481Z,40
2016-10-16T11:05:31.784Z,40
2016-10-16T11:06:31.817Z,30
2016-10-16T11:07:32.290Z,40
2016-10-16T11:08:31.536Z,40
2016-10-16T11:09:32.506Z,40
2016-10-16T11:10:31.911Z,40
2016-10-16T11:11:31.954Z,40
2016-10-16T11:12:31.655Z,40
2016-10-16T11:13:31.698Z,40
2016-10-16T11:14:32.029Z,40
2016-10-16T11:15:31.733Z,40
2016-10-16T11:16:32.787Z,40
2016-10-16T11:17:32.142Z,40
2016-10-16T11:18:32.472Z,35
2016-10-16T11:19:32.165Z,35
2016-10-16T11:20:32.232Z,40
2016-10-16T11:21:32.227Z,40
2016-10-16T11:22:33.755Z,30
2016-10-16T11:23:32.275Z,40
2016-10-16T11:24:32.616Z,40
2016-10-16T11:25:31.699Z,40
2016-10-16T11:26:32.670Z,25
2016-10-16T11:27:31.754Z,20
2016-10-16T11:28:32.749Z,20
2016-10-16T11:29:32.123Z,15
2016-10-16T11:30:32.155Z,25
2016-10-16T11:31:32.492Z,35
2016-10-16T11:32:32.846Z,40
2016-10-16T11:33:32.880Z,40
2016-10-16T11:34:32.586Z,40
2016-10-16T11:35:32.309Z,40
2016-10-16T11:36:32.032Z,40
2016-10-16T11:37:33.011Z,40
2016-10-16T11:38:32.816Z,40
2016-10-16T11:39:32.412Z,40
2016-10-16T11:40:33.344Z,30
2016-10-16T11:41:32.536Z,25
2016-10-16T11:42:33.004Z,35
2016-10-16T11:43:32.674Z,30
2016-10-16T11:44:33.449Z,30
2016-10-16T11:45:33.618Z,40
2016-10-16T11:46:33.196Z,40
2016-10-16T11:47:33.253Z,35
2016-10-16T11:48:32.791Z,30
2016-10-16T11:49:32.810Z,20
2016-10-16T11:50:32.412Z,25
2016-10-16T11:51:34.033Z,35
2016-10-16T11:52:33.339Z,35
2016-10-16T11:53:33.272Z,35
2016-10-16T11:54:34.363Z,35
2016-10-16T11:55:34.368Z,35
2016-10-16T11:56:33.416Z,35
2016-10-16T11:57:33.826Z,35
2016-10-16T11:58:34.250Z,35
2016-10-16T11:59:34.649Z,35
2016-10-16T12:00:33.198Z,35
2016-10-16T12:01:33.618Z,35
2016-10-16T12:02:33.290Z,35
2016-10-16T12:03:34.141Z,35
2016-10-16T12:04:33.501Z,35
2016-10-16T12:05:33.656Z,35
2016-10-16T12:06:33.492Z,35
2016-10-16T12:07:33.509Z,35
2016-10-16T12:08:33.541Z,35
2016-10-16T12:09:33.261Z,35
2016-10-16T12:10:33.288Z,35
2016-10-16T12:11:33.635Z,30
2016-10-16T12:12:33.982Z,30
2016-10-16T12:13:33.399Z,30
2016-10-16T12:14:33.421Z,30
2016-10-16T12:15:34.091Z,30
2016-10-16T12:16:33.138Z,30
2016-10-16T12:17:34.465Z,30
2016-10-16T12:18:34.160Z,30
2016-10-16T12:19:33.899Z,30
2016-10-16T12:20:34.224Z,30
2016-10-16T12:21:33.933Z,30
2016-10-16T12:22:33.944Z,30
2016-10-16T12:23:33.982Z,30
2016-10-16T12:24:33.687Z,30
2016-10-16T12:25:33.414Z,30
2016-10-16T12:26:34.057Z,30
2016-10-16T12:27:34.072Z,30
2016-10-16T12:28:34.798Z,30
2016-10-16T12:29:34.149Z,30
2016-10-16T12:30:34.194Z,25
2016-10-16T12:31:33.881Z,30
2016-10-16T12:32:34.223Z,25
2016-10-16T12:33:33.975Z,30
2016-10-16T12:34:33.956Z,30
2016-10-16T12:35:34.310Z,30
2016-10-16T12:36:34.334Z,25
2016-10-16T12:37:34.361Z,25
2016-10-16T12:38:35.022Z,25
2016-10-16T12:39:34.439Z,25
2016-10-16T12:40:35.088Z,25
2016-10-16T12:41:34.195Z,25
2016-10-16T12:42:34.821Z,25
2016-10-16T12:43:34.533Z,25
2016-10-16T12:44:34.883Z,25
2016-10-16T12:45:34.596Z,25
2016-10-16T12:46:34.321Z,25
2016-10-16T12:47:34.978Z,25
2016-10-16T12:48:35.202Z,25
2016-10-16T12:49:34.720Z,25
2016-10-16T12:50:34.432Z,25
2016-10-16T12:51:35.425Z,25
2016-10-16T12:52:34.793Z,25
2016-10-16T12:53:34.807Z,25
2016-10-16T12:54:34.524Z,25
2016-10-16T12:55:34.868Z,25
2016-10-16T12:56:34.895Z,25
2016-10-16T12:57:35.083Z,25
2016-10-16T12:58:34.952Z,25
2016-10-16T12:59:35.000Z,25
2016-10-16T13:00:35.010Z,25
2016-10-16T13:01:34.713Z,25
2016-10-16T13:02:35.061Z,25
2016-10-16T13:03:34.773Z,25
2016-10-16T13:04:35.153Z,25
2016-10-16T13:05:34.839Z,25
2016-10-16T13:06:34.870Z,25
2016-10-16T13:07:35.024Z,25
2016-10-16T13:08:34.914Z,25
2016-10-16T13:09:34.649Z,25
2016-10-16T13:10:34.979Z,25
2016-10-16T13:11:35.329Z,25
2016-10-16T13:12:35.034Z,25
2016-10-16T13:13:35.394Z,25
2016-10-16T13:14:36.034Z,25
2016-10-16T13:15:35.110Z,25
2016-10-16T13:16:35.170Z,25
2016-10-16T13:17:35.505Z,25
2016-10-16T13:18:35.212Z,25
2016-10-16T13:19:35.880Z,25
2016-10-16T13:20:35.034Z,25
2016-10-16T13:21:35.279Z,25
2016-10-16T13:22:34.993Z,25
2016-10-16T13:23:35.339Z,25
2016-10-16T13:24:35.693Z,25
2016-10-16T13:25:35.718Z,25
2016-10-16T13:26:36.055Z,25
2016-10-16T13:27:35.782Z,25
2016-10-16T13:28:35.475Z,25
2016-10-16T13:29:35.508Z,25
2016-10-16T13:30:36.477Z,25
2016-10-16T13:31:35.886Z,25
2016-10-16T13:32:35.590Z,25
2016-10-16T13:33:35.611Z,20
2016-10-16T13:34:36.279Z,20
2016-10-16T13:35:36.307Z,20
2016-10-16T13:36:35.702Z,20
2016-10-16T13:37:35.731Z,20
2016-10-16T13:38:36.393Z,20
2016-10-16T13:39:36.101Z,20
2016-10-16T13:40:36.763Z,20
2016-10-16T13:41:35.843Z,20
2016-10-16T13:42:36.499Z,20
2016-10-16T13:43:35.898Z,20
2016-10-16T13:44:35.931Z,20
2016-10-16T13:45:36.263Z,20
2016-10-16T13:46:35.980Z,20
2016-10-16T13:47:36.652Z,20
2016-10-16T13:48:36.046Z,20
2016-10-16T13:49:35.752Z,20
2016-10-16T13:50:36.085Z,20
2016-10-16T13:51:36.439Z,20
2016-10-16T13:52:36.782Z,20
2016-10-16T13:53:36.812Z,20
2016-10-16T13:54:36.227Z,20
2016-10-16T13:55:36.235Z,15
2016-10-16T13:56:36.265Z,15
2016-10-16T13:57:36.007Z,15
2016-10-16T13:58:36.309Z,15
2016-10-16T13:59:36.341Z,15
2016-10-16T14:00:36.691Z,15
2016-10-16T14:01:37.032Z,15
2016-10-16T14:02:36.445Z,15
2016-10-16T14:03:36.144Z,15
2016-10-16T14:04:36.805Z,15
2016-10-16T14:05:37.165Z,15
2016-10-16T14:06:36.856Z,15
2016-10-16T14:07:36.887Z,15
2016-10-16T14:08:36.617Z,15
2016-10-16T14:09:37.259Z,15
2016-10-16T14:10:36.662Z,15
2016-10-16T14:11:37.001Z,15
2016-10-16T14:12:37.024Z,15
2016-10-16T14:13:37.055Z,15
2016-10-16T14:14:37.420Z,15
2016-10-16T14:15:36.788Z,15
2016-10-16T14:16:37.150Z,15
2016-10-16T14:17:37.167Z,15
2016-10-16T14:18:37.191Z,15
2016-10-16T14:19:37.217Z,15
2016-10-16T14:20:37.237Z,15
2016-10-16T14:21:36.957Z,15
2016-10-16T14:22:37.621Z,15
2016-10-16T14:23:37.034Z,15
2016-10-16T14:24:37.671Z,15
2016-10-16T14:25:37.379Z,15
2016-10-16T14:26:37.424Z,15
2016-10-16T14:27:37.126Z,15
2016-10-16T14:28:37.464Z,15